sensor_id;sensor_type;location;lat;lon;timestamp;P1;durP1;ratioP1;P2;durP2;ratioP2
3712;SDS011;1872;51.406;6.856;2022-08-04T00:10:16;6.90;;;3.13;;
3712;SDS011;1872;51.406;6.856;2022-08-04T00:12:24;3.60;;;2.90;;
3712;SDS011;1872;51.406;6.856;2022-08-04T00:14:58;3.10;;;2.80;;
3712;SDS011;1872;51.406;6.856;2022-08-04T00:17:26;3.33;;;2.67;;
3712;SDS011;1872;51.406;6.856;2022-08-04T00:19:58;3.13;;;2.70;;
3712;SDS011;1872;51.406;6.856;2022-08-04T00:22:26;3.83;;;3.03;;
3712;SDS011;1872;51.406;6.856;2022-08-04T00:24:54;5.80;;;2.60;;
3712;SDS011;1872;51.406;6.856;2022-08-04T00:27:21;4.87;;;2.70;;
3712;SDS011;1872;51.406;6.856;2022-08-04T00:29:48;5.57;;;2.80;;
3712;SDS011;1872;51.406;6.856;2022-08-04T00:32:14;4.10;;;2.70;;
3712;SDS011;1872;51.406;6.856;2022-08-04T00:34:42;5.23;;;2.90;;
3712;SDS011;1872;51.406;6.856;2022-08-04T00:37:08;4.13;;;2.90;;
3712;SDS011;1872;51.406;6.856;2022-08-04T00:39:34;5.23;;;2.70;;
3712;SDS011;1872;51.406;6.856;2022-08-04T00:50:10;7.27;;;2.93;;
3712;SDS011;1872;51.406;6.856;2022-08-04T01:01:05;6.13;;;2.17;;
3712;SDS011;1872;51.406;6.856;2022-08-04T01:09:42;3.13;;;2.83;;
3712;SDS011;1872;51.406;6.856;2022-08-04T01:15:04;4.30;;;2.63;;
3712;SDS011;1872;51.406;6.856;2022-08-04T01:20:04;4.50;;;2.40;;
3712;SDS011;1872;51.406;6.856;2022-08-04T01:22:49;4.00;;;2.40;;
3712;SDS011;1872;51.406;6.856;2022-08-04T01:28:27;4.70;;;2.50;;
3712;SDS011;1872;51.406;6.856;2022-08-04T01:31:13;5.30;;;2.40;;
3712;SDS011;1872;51.406;6.856;2022-08-04T01:33:45;6.03;;;2.87;;
3712;SDS011;1872;51.406;6.856;2022-08-04T01:36:15;3.37;;;2.63;;
3712;SDS011;1872;51.406;6.856;2022-08-04T01:38:42;8.83;;;3.03;;
3712;SDS011;1872;51.406;6.856;2022-08-04T01:41:10;5.97;;;2.70;;
3712;SDS011;1872;51.406;6.856;2022-08-04T01:43:42;3.40;;;2.63;;
3712;SDS011;1872;51.406;6.856;2022-08-04T01:46:10;4.50;;;2.93;;
3712;SDS011;1872;51.406;6.856;2022-08-04T01:48:38;4.50;;;2.57;;
3712;SDS011;1872;51.406;6.856;2022-08-04T01:51:05;5.23;;;2.77;;
3712;SDS011;1872;51.406;6.856;2022-08-04T01:53:34;6.10;;;3.07;;
3712;SDS011;1872;51.406;6.856;2022-08-04T01:56:02;5.03;;;2.53;;
3712;SDS011;1872;51.406;6.856;2022-08-04T01:58:29;5.10;;;2.70;;
3712;SDS011;1872;51.406;6.856;2022-08-04T02:01:03;7.40;;;2.80;;
3712;SDS011;1872;51.406;6.856;2022-08-04T02:03:39;5.63;;;2.20;;
3712;SDS011;1872;51.406;6.856;2022-08-04T02:09:16;4.13;;;2.70;;
3712;SDS011;1872;51.406;6.856;2022-08-04T02:12:02;4.90;;;2.37;;
3712;SDS011;1872;51.406;6.856;2022-08-04T02:14:43;5.50;;;2.90;;
3712;SDS011;1872;51.406;6.856;2022-08-04T02:17:20;5.37;;;2.67;;
3712;SDS011;1872;51.406;6.856;2022-08-04T02:22:29;4.00;;;2.90;;
3712;SDS011;1872;51.406;6.856;2022-08-04T02:25:06;5.43;;;3.77;;
3712;SDS011;1872;51.406;6.856;2022-08-04T02:27:40;4.63;;;2.50;;
3712;SDS011;1872;51.406;6.856;2022-08-04T02:30:10;5.80;;;2.67;;
3712;SDS011;1872;51.406;6.856;2022-08-04T02:32:36;4.33;;;2.63;;
3712;SDS011;1872;51.406;6.856;2022-08-04T02:35:06;6.90;;;3.03;;
3712;SDS011;1872;51.406;6.856;2022-08-04T02:37:38;7.13;;;2.80;;
3712;SDS011;1872;51.406;6.856;2022-08-04T02:40:11;6.27;;;2.73;;
3712;SDS011;1872;51.406;6.856;2022-08-04T02:42:37;7.07;;;2.93;;
3712;SDS011;1872;51.406;6.856;2022-08-04T02:45:03;7.00;;;3.00;;
3712;SDS011;1872;51.406;6.856;2022-08-04T02:47:32;3.80;;;2.80;;
3712;SDS011;1872;51.406;6.856;2022-08-04T02:49:59;4.77;;;2.57;;
3712;SDS011;1872;51.406;6.856;2022-08-04T02:52:26;7.47;;;3.07;;
3712;SDS011;1872;51.406;6.856;2022-08-04T02:54:54;3.93;;;2.80;;
3712;SDS011;1872;51.406;6.856;2022-08-04T02:57:23;6.80;;;3.43;;
3712;SDS011;1872;51.406;6.856;2022-08-04T03:05:27;4.50;;;2.60;;
3712;SDS011;1872;51.406;6.856;2022-08-04T03:30:18;7.77;;;4.10;;
3712;SDS011;1872;51.406;6.856;2022-08-04T03:33:04;3.67;;;3.40;;
3712;SDS011;1872;51.406;6.856;2022-08-04T04:03:58;3.50;;;2.83;;
3712;SDS011;1872;51.406;6.856;2022-08-04T04:20:03;5.47;;;3.60;;
3712;SDS011;1872;51.406;6.856;2022-08-04T04:26:05;4.93;;;3.87;;
3712;SDS011;1872;51.406;6.856;2022-08-04T04:35:06;5.27;;;3.33;;
3712;SDS011;1872;51.406;6.856;2022-08-04T04:37:45;7.60;;;3.90;;
3712;SDS011;1872;51.406;6.856;2022-08-04T04:51:19;5.80;;;3.40;;
3712;SDS011;1872;51.406;6.856;2022-08-04T04:54:04;7.73;;;3.43;;
3712;SDS011;1872;51.406;6.856;2022-08-04T04:56:36;4.67;;;3.83;;
3712;SDS011;1872;51.406;6.856;2022-08-04T04:59:15;4.90;;;3.60;;
3712;SDS011;1872;51.406;6.856;2022-08-04T05:16:09;6.67;;;3.17;;
3712;SDS011;1872;51.406;6.856;2022-08-04T05:18:41;3.80;;;3.20;;
3712;SDS011;1872;51.406;6.856;2022-08-04T05:21:18;4.43;;;3.53;;
3712;SDS011;1872;51.406;6.856;2022-08-04T05:23:46;6.70;;;5.00;;
3712;SDS011;1872;51.406;6.856;2022-08-04T05:26:15;6.23;;;5.00;;
3712;SDS011;1872;51.406;6.856;2022-08-04T05:28:51;8.43;;;3.87;;
3712;SDS011;1872;51.406;6.856;2022-08-04T05:31:28;6.70;;;3.63;;
3712;SDS011;1872;51.406;6.856;2022-08-04T05:34:04;7.20;;;3.90;;
3712;SDS011;1872;51.406;6.856;2022-08-04T05:36:35;6.40;;;4.13;;
3712;SDS011;1872;51.406;6.856;2022-08-04T05:39:16;9.10;;;4.47;;
3712;SDS011;1872;51.406;6.856;2022-08-04T05:41:45;6.30;;;3.70;;
3712;SDS011;1872;51.406;6.856;2022-08-04T05:44:16;4.77;;;4.00;;
3712;SDS011;1872;51.406;6.856;2022-08-04T05:46:47;5.73;;;4.17;;
3712;SDS011;1872;51.406;6.856;2022-08-04T05:49:16;6.53;;;3.57;;
3712;SDS011;1872;51.406;6.856;2022-08-04T05:51:44;4.77;;;4.07;;
3712;SDS011;1872;51.406;6.856;2022-08-04T05:54:10;5.60;;;4.03;;
3712;SDS011;1872;51.406;6.856;2022-08-04T05:56:37;10.60;;;4.10;;
3712;SDS011;1872;51.406;6.856;2022-08-04T05:59:04;5.17;;;3.77;;
3712;SDS011;1872;51.406;6.856;2022-08-04T06:01:31;3.30;;;3.00;;
3712;SDS011;1872;51.406;6.856;2022-08-04T06:03:58;3.97;;;3.67;;
3712;SDS011;1872;51.406;6.856;2022-08-04T06:06:26;3.97;;;3.37;;
3712;SDS011;1872;51.406;6.856;2022-08-04T06:08:53;6.00;;;3.83;;
3712;SDS011;1872;51.406;6.856;2022-08-04T06:11:19;5.53;;;3.90;;
3712;SDS011;1872;51.406;6.856;2022-08-04T06:13:49;5.00;;;3.87;;
3712;SDS011;1872;51.406;6.856;2022-08-04T06:16:20;4.73;;;4.27;;
3712;SDS011;1872;51.406;6.856;2022-08-04T06:18:48;7.37;;;4.60;;
3712;SDS011;1872;51.406;6.856;2022-08-04T06:21:17;5.57;;;4.60;;
3712;SDS011;1872;51.406;6.856;2022-08-04T06:23:51;4.60;;;4.30;;
3712;SDS011;1872;51.406;6.856;2022-08-04T06:26:21;3.80;;;3.50;;
3712;SDS011;1872;51.406;6.856;2022-08-04T06:28:49;4.60;;;3.60;;
3712;SDS011;1872;51.406;6.856;2022-08-04T06:31:18;4.50;;;4.00;;
3712;SDS011;1872;51.406;6.856;2022-08-04T06:34:04;4.80;;;4.33;;
3712;SDS011;1872;51.406;6.856;2022-08-04T06:36:32;5.10;;;3.40;;
3712;SDS011;1872;51.406;6.856;2022-08-04T06:41:40;4.43;;;4.03;;
3712;SDS011;1872;51.406;6.856;2022-08-04T06:44:07;3.03;;;2.70;;
3712;SDS011;1872;51.406;6.856;2022-08-04T06:46:36;4.33;;;3.87;;
3712;SDS011;1872;51.406;6.856;2022-08-04T06:49:04;5.37;;;4.53;;
3712;SDS011;1872;51.406;6.856;2022-08-04T06:51:32;3.90;;;3.60;;
3712;SDS011;1872;51.406;6.856;2022-08-04T06:54:01;6.10;;;4.77;;
3712;SDS011;1872;51.406;6.856;2022-08-04T06:56:27;3.63;;;3.33;;
3712;SDS011;1872;51.406;6.856;2022-08-04T06:58:55;5.80;;;4.90;;
3712;SDS011;1872;51.406;6.856;2022-08-04T07:01:21;5.90;;;4.73;;
3712;SDS011;1872;51.406;6.856;2022-08-04T07:03:50;4.30;;;3.90;;
3712;SDS011;1872;51.406;6.856;2022-08-04T07:06:16;4.17;;;3.87;;
3712;SDS011;1872;51.406;6.856;2022-08-04T07:08:43;4.93;;;4.53;;
3712;SDS011;1872;51.406;6.856;2022-08-04T07:11:09;4.53;;;3.97;;
3712;SDS011;1872;51.406;6.856;2022-08-04T07:13:36;5.13;;;4.63;;
3712;SDS011;1872;51.406;6.856;2022-08-04T07:16:03;4.50;;;4.20;;
3712;SDS011;1872;51.406;6.856;2022-08-04T07:18:30;4.80;;;4.27;;
3712;SDS011;1872;51.406;6.856;2022-08-04T07:20:56;4.53;;;4.23;;
3712;SDS011;1872;51.406;6.856;2022-08-04T07:23:23;4.37;;;4.07;;
3712;SDS011;1872;51.406;6.856;2022-08-04T07:25:53;3.83;;;3.53;;
3712;SDS011;1872;51.406;6.856;2022-08-04T07:28:23;4.63;;;4.33;;
3712;SDS011;1872;51.406;6.856;2022-08-04T07:30:51;4.83;;;4.53;;
3712;SDS011;1872;51.406;6.856;2022-08-04T07:33:18;3.53;;;3.27;;
3712;SDS011;1872;51.406;6.856;2022-08-04T07:35:44;4.10;;;3.80;;
3712;SDS011;1872;51.406;6.856;2022-08-04T07:38:13;4.17;;;3.87;;
3712;SDS011;1872;51.406;6.856;2022-08-04T07:40:39;3.93;;;3.63;;
3712;SDS011;1872;51.406;6.856;2022-08-04T07:43:05;4.37;;;3.97;;
3712;SDS011;1872;51.406;6.856;2022-08-04T07:45:34;3.73;;;3.43;;
3712;SDS011;1872;51.406;6.856;2022-08-04T07:48:01;4.83;;;4.43;;
3712;SDS011;1872;51.406;6.856;2022-08-04T07:50:32;4.30;;;3.90;;
3712;SDS011;1872;51.406;6.856;2022-08-04T07:52:59;4.57;;;4.20;;
3712;SDS011;1872;51.406;6.856;2022-08-04T07:55:25;5.10;;;4.47;;
3712;SDS011;1872;51.406;6.856;2022-08-04T07:57:52;5.10;;;4.60;;
3712;SDS011;1872;51.406;6.856;2022-08-04T08:00:18;4.40;;;4.00;;
3712;SDS011;1872;51.406;6.856;2022-08-04T08:02:47;4.40;;;4.10;;
3712;SDS011;1872;51.406;6.856;2022-08-04T08:05:14;4.33;;;3.93;;
3712;SDS011;1872;51.406;6.856;2022-08-04T08:07:49;4.30;;;4.00;;
3712;SDS011;1872;51.406;6.856;2022-08-04T08:10:15;4.17;;;3.87;;
3712;SDS011;1872;51.406;6.856;2022-08-04T08:12:43;4.47;;;4.17;;
3712;SDS011;1872;51.406;6.856;2022-08-04T08:15:10;4.43;;;3.87;;
3712;SDS011;1872;51.406;6.856;2022-08-04T08:17:39;4.17;;;3.77;;
3712;SDS011;1872;51.406;6.856;2022-08-04T08:20:06;3.90;;;3.60;;
3712;SDS011;1872;51.406;6.856;2022-08-04T08:22:35;4.40;;;3.80;;
3712;SDS011;1872;51.406;6.856;2022-08-04T08:25:03;3.77;;;3.57;;
3712;SDS011;1872;51.406;6.856;2022-08-04T08:27:32;4.20;;;3.90;;
3712;SDS011;1872;51.406;6.856;2022-08-04T08:30:00;4.70;;;4.40;;
3712;SDS011;1872;51.406;6.856;2022-08-04T08:32:28;4.83;;;4.30;;
3712;SDS011;1872;51.406;6.856;2022-08-04T08:34:55;4.70;;;4.10;;
3712;SDS011;1872;51.406;6.856;2022-08-04T08:42:46;6.20;;;4.23;;
3712;SDS011;1872;51.406;6.856;2022-08-04T08:48:17;3.80;;;3.50;;
3712;SDS011;1872;51.406;6.856;2022-08-04T08:51:13;4.70;;;3.60;;
3712;SDS011;1872;51.406;6.856;2022-08-04T09:11:19;3.97;;;3.67;;
3712;SDS011;1872;51.406;6.856;2022-08-04T09:13:55;5.10;;;3.77;;
3712;SDS011;1872;51.406;6.856;2022-08-04T09:16:34;4.47;;;4.17;;
3712;SDS011;1872;51.406;6.856;2022-08-04T09:19:14;3.90;;;3.60;;
3712;SDS011;1872;51.406;6.856;2022-08-04T09:21:53;4.23;;;3.83;;
3712;SDS011;1872;51.406;6.856;2022-08-04T09:30:20;4.57;;;4.17;;
3712;SDS011;1872;51.406;6.856;2022-08-04T09:33:23;3.77;;;3.47;;
3712;SDS011;1872;51.406;6.856;2022-08-04T09:36:09;5.00;;;4.50;;
3712;SDS011;1872;51.406;6.856;2022-08-04T09:39:36;4.00;;;3.70;;
3712;SDS011;1872;51.406;6.856;2022-08-04T09:47:12;3.90;;;3.60;;
3712;SDS011;1872;51.406;6.856;2022-08-04T10:00:08;5.17;;;4.10;;
3712;SDS011;1872;51.406;6.856;2022-08-04T10:02:38;4.77;;;4.27;;
3712;SDS011;1872;51.406;6.856;2022-08-04T10:05:11;4.97;;;4.50;;
3712;SDS011;1872;51.406;6.856;2022-08-04T10:07:56;4.47;;;3.93;;
3712;SDS011;1872;51.406;6.856;2022-08-04T10:15:44;4.30;;;3.90;;
3712;SDS011;1872;51.406;6.856;2022-08-04T10:29:25;5.03;;;4.33;;
3712;SDS011;1872;51.406;6.856;2022-08-04T10:34:40;4.63;;;4.23;;
3712;SDS011;1872;51.406;6.856;2022-08-04T10:37:18;4.93;;;3.80;;
3712;SDS011;1872;51.406;6.856;2022-08-04T10:43:08;3.63;;;3.40;;
3712;SDS011;1872;51.406;6.856;2022-08-04T10:46:02;3.93;;;3.60;;
3712;SDS011;1872;51.406;6.856;2022-08-04T10:51:08;3.53;;;3.23;;
3712;SDS011;1872;51.406;6.856;2022-08-04T10:53:45;5.40;;;3.80;;
3712;SDS011;1872;51.406;6.856;2022-08-04T10:56:21;6.80;;;3.60;;
3712;SDS011;1872;51.406;6.856;2022-08-04T10:58:55;5.10;;;3.87;;
3712;SDS011;1872;51.406;6.856;2022-08-04T11:01:30;10.40;;;4.13;;
3712;SDS011;1872;51.406;6.856;2022-08-04T11:04:00;4.97;;;3.57;;
3712;SDS011;1872;51.406;6.856;2022-08-04T11:06:32;3.63;;;3.33;;
3712;SDS011;1872;51.406;6.856;2022-08-04T11:08:59;4.43;;;3.50;;
3712;SDS011;1872;51.406;6.856;2022-08-04T11:11:37;4.43;;;3.40;;
3712;SDS011;1872;51.406;6.856;2022-08-04T11:14:12;6.13;;;4.23;;
3712;SDS011;1872;51.406;6.856;2022-08-04T11:17:00;3.90;;;3.50;;
3712;SDS011;1872;51.406;6.856;2022-08-04T11:19:32;5.60;;;3.67;;
3712;SDS011;1872;51.406;6.856;2022-08-04T11:22:26;3.83;;;3.50;;
3712;SDS011;1872;51.406;6.856;2022-08-04T11:27:41;5.43;;;3.77;;
3712;SDS011;1872;51.406;6.856;2022-08-04T11:30:19;4.00;;;3.60;;
3712;SDS011;1872;51.406;6.856;2022-08-04T11:39:11;4.20;;;3.80;;
3712;SDS011;1872;51.406;6.856;2022-08-04T11:50:20;4.80;;;3.03;;
3712;SDS011;1872;51.406;6.856;2022-08-04T11:53:02;3.40;;;3.10;;
3712;SDS011;1872;51.406;6.856;2022-08-04T11:55:29;3.73;;;3.30;;
3712;SDS011;1872;51.406;6.856;2022-08-04T11:57:56;3.43;;;3.13;;
3712;SDS011;1872;51.406;6.856;2022-08-04T12:00:24;3.40;;;3.10;;
3712;SDS011;1872;51.406;6.856;2022-08-04T12:06:17;4.17;;;3.67;;
3712;SDS011;1872;51.406;6.856;2022-08-04T12:09:16;5.13;;;4.10;;
3712;SDS011;1872;51.406;6.856;2022-08-04T12:14:46;4.10;;;3.60;;
3712;SDS011;1872;51.406;6.856;2022-08-04T12:17:26;8.83;;;4.23;;
3712;SDS011;1872;51.406;6.856;2022-08-04T12:20:00;3.70;;;3.40;;
3712;SDS011;1872;51.406;6.856;2022-08-04T12:22:39;3.73;;;3.20;;
3712;SDS011;1872;51.406;6.856;2022-08-04T12:25:11;4.10;;;3.80;;
3712;SDS011;1872;51.406;6.856;2022-08-04T12:27:46;5.90;;;4.17;;
3712;SDS011;1872;51.406;6.856;2022-08-04T12:30:12;3.53;;;3.23;;
3712;SDS011;1872;51.406;6.856;2022-08-04T12:32:42;4.07;;;3.70;;
3712;SDS011;1872;51.406;6.856;2022-08-04T12:38:22;5.57;;;3.87;;
3712;SDS011;1872;51.406;6.856;2022-08-04T12:40:55;6.37;;;3.90;;
3712;SDS011;1872;51.406;6.856;2022-08-04T12:45:57;5.27;;;4.80;;
3712;SDS011;1872;51.406;6.856;2022-08-04T12:48:27;8.00;;;5.00;;
3712;SDS011;1872;51.406;6.856;2022-08-04T12:50:55;7.83;;;5.00;;
3712;SDS011;1872;51.406;6.856;2022-08-04T12:53:25;5.70;;;5.10;;
3712;SDS011;1872;51.406;6.856;2022-08-04T12:55:53;10.67;;;6.57;;
3712;SDS011;1872;51.406;6.856;2022-08-04T12:58:22;7.93;;;5.70;;
3712;SDS011;1872;51.406;6.856;2022-08-04T13:00:56;7.80;;;6.00;;
3712;SDS011;1872;51.406;6.856;2022-08-04T13:03:26;6.67;;;5.77;;
3712;SDS011;1872;51.406;6.856;2022-08-04T13:06:01;7.50;;;5.30;;
3712;SDS011;1872;51.406;6.856;2022-08-04T13:08:29;4.90;;;4.40;;
3712;SDS011;1872;51.406;6.856;2022-08-04T13:11:02;3.87;;;3.57;;
3712;SDS011;1872;51.406;6.856;2022-08-04T13:13:30;7.13;;;5.60;;
3712;SDS011;1872;51.406;6.856;2022-08-04T13:16:00;5.67;;;4.80;;
3712;SDS011;1872;51.406;6.856;2022-08-04T13:18:30;5.37;;;4.20;;
3712;SDS011;1872;51.406;6.856;2022-08-04T13:21:15;5.70;;;5.20;;
3712;SDS011;1872;51.406;6.856;2022-08-04T13:23:41;10.20;;;9.10;;
3712;SDS011;1872;51.406;6.856;2022-08-04T13:26:13;5.53;;;4.83;;
3712;SDS011;1872;51.406;6.856;2022-08-04T13:28:41;6.90;;;5.77;;
3712;SDS011;1872;51.406;6.856;2022-08-04T13:31:13;8.10;;;5.70;;
3712;SDS011;1872;51.406;6.856;2022-08-04T13:33:42;5.50;;;5.00;;
3712;SDS011;1872;51.406;6.856;2022-08-04T13:36:10;7.77;;;5.10;;
3712;SDS011;1872;51.406;6.856;2022-08-04T13:38:37;5.53;;;4.40;;
3712;SDS011;1872;51.406;6.856;2022-08-04T13:41:10;6.13;;;4.40;;
3712;SDS011;1872;51.406;6.856;2022-08-04T13:43:43;9.47;;;4.93;;
3712;SDS011;1872;51.406;6.856;2022-08-04T13:46:13;6.17;;;5.37;;
3712;SDS011;1872;51.406;6.856;2022-08-04T13:48:42;4.33;;;3.93;;
3712;SDS011;1872;51.406;6.856;2022-08-04T13:51:09;5.93;;;4.50;;
3712;SDS011;1872;51.406;6.856;2022-08-04T13:53:37;5.20;;;4.37;;
3712;SDS011;1872;51.406;6.856;2022-08-04T13:56:05;4.37;;;4.00;;
3712;SDS011;1872;51.406;6.856;2022-08-04T13:58:34;4.30;;;3.90;;
3712;SDS011;1872;51.406;6.856;2022-08-04T14:01:14;5.80;;;4.97;;
3712;SDS011;1872;51.406;6.856;2022-08-04T14:06:28;5.63;;;4.70;;
3712;SDS011;1872;51.406;6.856;2022-08-04T14:09:21;7.30;;;5.50;;
3712;SDS011;1872;51.406;6.856;2022-08-04T14:11:49;4.23;;;3.83;;
3712;SDS011;1872;51.406;6.856;2022-08-04T14:25:15;5.90;;;3.53;;
3712;SDS011;1872;51.406;6.856;2022-08-04T14:30:24;4.27;;;3.87;;
3712;SDS011;1872;51.406;6.856;2022-08-04T14:32:56;4.17;;;3.77;;
3712;SDS011;1872;51.406;6.856;2022-08-04T14:35:27;4.43;;;4.03;;
3712;SDS011;1872;51.406;6.856;2022-08-04T14:38:03;4.50;;;4.10;;
3712;SDS011;1872;51.406;6.856;2022-08-04T14:40:33;3.77;;;3.47;;
3712;SDS011;1872;51.406;6.856;2022-08-04T14:43:00;3.80;;;3.50;;
3712;SDS011;1872;51.406;6.856;2022-08-04T14:45:28;4.70;;;4.20;;
3712;SDS011;1872;51.406;6.856;2022-08-04T14:47:56;4.97;;;3.83;;
3712;SDS011;1872;51.406;6.856;2022-08-04T14:50:38;6.00;;;3.70;;
3712;SDS011;1872;51.406;6.856;2022-08-04T14:55:34;7.60;;;4.00;;
3712;SDS011;1872;51.406;6.856;2022-08-04T14:58:01;5.27;;;3.73;;
3712;SDS011;1872;51.406;6.856;2022-08-04T15:00:28;3.90;;;3.60;;
3712;SDS011;1872;51.406;6.856;2022-08-04T15:03:03;4.43;;;4.03;;
3712;SDS011;1872;51.406;6.856;2022-08-04T15:05:33;4.90;;;3.77;;
3712;SDS011;1872;51.406;6.856;2022-08-04T15:08:04;5.03;;;3.70;;
3712;SDS011;1872;51.406;6.856;2022-08-04T15:10:31;4.30;;;3.90;;
3712;SDS011;1872;51.406;6.856;2022-08-04T15:12:57;5.63;;;3.93;;
3712;SDS011;1872;51.406;6.856;2022-08-04T15:15:23;5.23;;;4.33;;
3712;SDS011;1872;51.406;6.856;2022-08-04T15:17:51;4.63;;;4.27;;
3712;SDS011;1872;51.406;6.856;2022-08-04T15:20:17;4.80;;;4.07;;
3712;SDS011;1872;51.406;6.856;2022-08-04T15:22:43;3.77;;;3.47;;
3712;SDS011;1872;51.406;6.856;2022-08-04T15:25:10;4.00;;;3.67;;
3712;SDS011;1872;51.406;6.856;2022-08-04T15:27:38;5.63;;;3.40;;
3712;SDS011;1872;51.406;6.856;2022-08-04T15:30:08;4.80;;;3.87;;
3712;SDS011;1872;51.406;6.856;2022-08-04T15:32:40;8.00;;;4.47;;
3712;SDS011;1872;51.406;6.856;2022-08-04T15:35:12;5.23;;;4.07;;
3712;SDS011;1872;51.406;6.856;2022-08-04T15:43:14;7.63;;;4.13;;
3712;SDS011;1872;51.406;6.856;2022-08-04T15:46:04;5.10;;;3.10;;
3712;SDS011;1872;51.406;6.856;2022-08-04T15:48:31;4.73;;;3.97;;
3712;SDS011;1872;51.406;6.856;2022-08-04T15:53:26;3.97;;;3.57;;
3712;SDS011;1872;51.406;6.856;2022-08-04T15:55:52;4.13;;;3.80;;
3712;SDS011;1872;51.406;6.856;2022-08-04T15:58:19;4.63;;;3.40;;
3712;SDS011;1872;51.406;6.856;2022-08-04T16:04:04;4.37;;;3.20;;
3712;SDS011;1872;51.406;6.856;2022-08-04T16:21:31;4.00;;;3.40;;
3712;SDS011;1872;51.406;6.856;2022-08-04T16:24:05;7.20;;;3.90;;
3712;SDS011;1872;51.406;6.856;2022-08-04T16:29:01;5.70;;;3.30;;
3712;SDS011;1872;51.406;6.856;2022-08-04T16:34:33;4.30;;;3.90;;
3712;SDS011;1872;51.406;6.856;2022-08-04T16:37:01;6.07;;;3.90;;
3712;SDS011;1872;51.406;6.856;2022-08-04T16:39:28;7.03;;;4.30;;
3712;SDS011;1872;51.406;6.856;2022-08-04T16:41:54;7.47;;;4.63;;
3712;SDS011;1872;51.406;6.856;2022-08-04T16:44:27;4.43;;;4.03;;
3712;SDS011;1872;51.406;6.856;2022-08-04T16:46:54;5.77;;;4.67;;
3712;SDS011;1872;51.406;6.856;2022-08-04T16:49:22;4.90;;;4.47;;
3712;SDS011;1872;51.406;6.856;2022-08-04T16:51:48;4.73;;;4.20;;
3712;SDS011;1872;51.406;6.856;2022-08-04T16:54:16;4.10;;;3.47;;
3712;SDS011;1872;51.406;6.856;2022-08-04T16:56:42;3.70;;;3.27;;
3712;SDS011;1872;51.406;6.856;2022-08-04T16:59:10;3.83;;;3.47;;
3712;SDS011;1872;51.406;6.856;2022-08-04T17:01:37;3.93;;;3.20;;
3712;SDS011;1872;51.406;6.856;2022-08-04T17:04:11;3.73;;;3.43;;
3712;SDS011;1872;51.406;6.856;2022-08-04T17:06:41;5.70;;;5.20;;
3712;SDS011;1872;51.406;6.856;2022-08-04T17:09:15;7.40;;;4.47;;
3712;SDS011;1872;51.406;6.856;2022-08-04T17:11:43;6.00;;;4.80;;
3712;SDS011;1872;51.406;6.856;2022-08-04T17:14:11;8.47;;;4.77;;
3712;SDS011;1872;51.406;6.856;2022-08-04T17:16:39;5.20;;;4.30;;
3712;SDS011;1872;51.406;6.856;2022-08-04T17:19:07;5.77;;;4.70;;
3712;SDS011;1872;51.406;6.856;2022-08-04T17:21:35;7.70;;;5.00;;
3712;SDS011;1872;51.406;6.856;2022-08-04T17:24:02;9.57;;;4.33;;
3712;SDS011;1872;51.406;6.856;2022-08-04T17:26:34;4.80;;;4.40;;
3712;SDS011;1872;51.406;6.856;2022-08-04T17:29:01;5.20;;;4.20;;
3712;SDS011;1872;51.406;6.856;2022-08-04T17:31:29;5.67;;;4.23;;
3712;SDS011;1872;51.406;6.856;2022-08-04T17:33:58;8.00;;;5.00;;
3712;SDS011;1872;51.406;6.856;2022-08-04T17:36:29;5.60;;;4.93;;
3712;SDS011;1872;51.406;6.856;2022-08-04T17:38:58;5.00;;;4.03;;
3712;SDS011;1872;51.406;6.856;2022-08-04T17:41:34;7.57;;;5.40;;
3712;SDS011;1872;51.406;6.856;2022-08-04T17:44:00;7.70;;;4.83;;
3712;SDS011;1872;51.406;6.856;2022-08-04T17:49:19;10.30;;;4.93;;
3712;SDS011;1872;51.406;6.856;2022-08-04T17:51:52;5.33;;;4.30;;
3712;SDS011;1872;51.406;6.856;2022-08-04T17:56:55;8.53;;;4.77;;
3712;SDS011;1872;51.406;6.856;2022-08-04T17:59:24;5.43;;;4.40;;
3712;SDS011;1872;51.406;6.856;2022-08-04T18:01:55;4.40;;;4.00;;
3712;SDS011;1872;51.406;6.856;2022-08-04T18:04:23;5.57;;;5.00;;
3712;SDS011;1872;51.406;6.856;2022-08-04T18:06:49;7.77;;;5.07;;
3712;SDS011;1872;51.406;6.856;2022-08-04T18:09:51;6.90;;;4.70;;
3712;SDS011;1872;51.406;6.856;2022-08-04T18:15:01;7.23;;;4.20;;
3712;SDS011;1872;51.406;6.856;2022-08-04T18:20:10;5.83;;;5.33;;
3712;SDS011;1872;51.406;6.856;2022-08-04T18:22:41;5.53;;;4.33;;
3712;SDS011;1872;51.406;6.856;2022-08-04T18:25:08;4.33;;;4.03;;
3712;SDS011;1872;51.406;6.856;2022-08-04T18:27:44;5.30;;;4.60;;
3712;SDS011;1872;51.406;6.856;2022-08-04T18:30:13;5.43;;;4.60;;
3712;SDS011;1872;51.406;6.856;2022-08-04T18:32:39;10.40;;;5.27;;
3712;SDS011;1872;51.406;6.856;2022-08-04T18:35:05;6.30;;;5.47;;
3712;SDS011;1872;51.406;6.856;2022-08-04T18:37:34;9.70;;;5.40;;
3712;SDS011;1872;51.406;6.856;2022-08-04T18:40:01;5.17;;;4.67;;
3712;SDS011;1872;51.406;6.856;2022-08-04T18:42:29;6.73;;;4.50;;
3712;SDS011;1872;51.406;6.856;2022-08-04T18:44:55;5.00;;;4.23;;
3712;SDS011;1872;51.406;6.856;2022-08-04T18:47:21;5.00;;;3.80;;
3712;SDS011;1872;51.406;6.856;2022-08-04T18:49:50;4.83;;;3.50;;
3712;SDS011;1872;51.406;6.856;2022-08-04T18:52:16;6.13;;;4.07;;
3712;SDS011;1872;51.406;6.856;2022-08-04T18:54:42;5.20;;;4.13;;
3712;SDS011;1872;51.406;6.856;2022-08-04T18:57:08;6.27;;;4.17;;
3712;SDS011;1872;51.406;6.856;2022-08-04T18:59:33;6.80;;;4.23;;
3712;SDS011;1872;51.406;6.856;2022-08-04T19:02:00;5.60;;;4.00;;
3712;SDS011;1872;51.406;6.856;2022-08-04T19:04:26;5.03;;;3.90;;
3712;SDS011;1872;51.406;6.856;2022-08-04T19:06:52;5.87;;;4.23;;
3712;SDS011;1872;51.406;6.856;2022-08-04T19:09:18;4.80;;;3.70;;
3712;SDS011;1872;51.406;6.856;2022-08-04T19:11:43;7.30;;;3.93;;
3712;SDS011;1872;51.406;6.856;2022-08-04T19:14:09;6.37;;;4.20;;
3712;SDS011;1872;51.406;6.856;2022-08-04T19:16:35;5.93;;;4.10;;
3712;SDS011;1872;51.406;6.856;2022-08-04T19:19:02;6.70;;;3.90;;
3712;SDS011;1872;51.406;6.856;2022-08-04T19:21:29;6.03;;;4.40;;
3712;SDS011;1872;51.406;6.856;2022-08-04T19:23:55;8.10;;;4.37;;
3712;SDS011;1872;51.406;6.856;2022-08-04T19:26:24;5.03;;;4.37;;
3712;SDS011;1872;51.406;6.856;2022-08-04T19:28:52;4.93;;;4.43;;
3712;SDS011;1872;51.406;6.856;2022-08-04T19:31:18;6.57;;;4.30;;
3712;SDS011;1872;51.406;6.856;2022-08-04T19:33:45;3.90;;;3.60;;
3712;SDS011;1872;51.406;6.856;2022-08-04T19:36:11;6.73;;;4.23;;
3712;SDS011;1872;51.406;6.856;2022-08-04T19:38:37;4.60;;;4.30;;
3712;SDS011;1872;51.406;6.856;2022-08-04T19:41:03;4.93;;;3.80;;
3712;SDS011;1872;51.406;6.856;2022-08-04T19:43:31;5.80;;;4.70;;
3712;SDS011;1872;51.406;6.856;2022-08-04T19:45:57;6.63;;;5.07;;
3712;SDS011;1872;51.406;6.856;2022-08-04T19:48:25;6.70;;;4.93;;
3712;SDS011;1872;51.406;6.856;2022-08-04T19:50:51;6.07;;;4.40;;
3712;SDS011;1872;51.406;6.856;2022-08-04T19:53:18;5.40;;;4.80;;
3712;SDS011;1872;51.406;6.856;2022-08-04T19:55:44;7.30;;;4.33;;
3712;SDS011;1872;51.406;6.856;2022-08-04T19:58:10;4.77;;;4.33;;
3712;SDS011;1872;51.406;6.856;2022-08-04T20:00:38;4.80;;;4.30;;
3712;SDS011;1872;51.406;6.856;2022-08-04T20:03:08;4.83;;;4.37;;
3712;SDS011;1872;51.406;6.856;2022-08-04T20:05:37;6.10;;;4.80;;
3712;SDS011;1872;51.406;6.856;2022-08-04T20:08:06;7.80;;;5.17;;
3712;SDS011;1872;51.406;6.856;2022-08-04T20:10:32;6.53;;;4.13;;
3712;SDS011;1872;51.406;6.856;2022-08-04T20:12:59;9.37;;;5.30;;
3712;SDS011;1872;51.406;6.856;2022-08-04T20:15:25;7.73;;;4.93;;
3712;SDS011;1872;51.406;6.856;2022-08-04T20:17:50;4.70;;;4.30;;
3712;SDS011;1872;51.406;6.856;2022-08-04T20:20:20;5.20;;;4.60;;
3712;SDS011;1872;51.406;6.856;2022-08-04T20:22:46;5.47;;;4.67;;
3712;SDS011;1872;51.406;6.856;2022-08-04T20:25:13;4.70;;;4.30;;
3712;SDS011;1872;51.406;6.856;2022-08-04T20:27:40;5.23;;;4.63;;
3712;SDS011;1872;51.406;6.856;2022-08-04T20:30:09;6.33;;;5.23;;
3712;SDS011;1872;51.406;6.856;2022-08-04T20:32:35;5.93;;;5.40;;
3712;SDS011;1872;51.406;6.856;2022-08-04T20:35:01;6.10;;;4.40;;
3712;SDS011;1872;51.406;6.856;2022-08-04T20:37:27;7.30;;;4.47;;
3712;SDS011;1872;51.406;6.856;2022-08-04T20:39:58;7.13;;;4.43;;
3712;SDS011;1872;51.406;6.856;2022-08-04T20:42:26;5.03;;;4.60;;
3712;SDS011;1872;51.406;6.856;2022-08-04T20:44:55;6.90;;;5.27;;
3712;SDS011;1872;51.406;6.856;2022-08-04T20:47:21;6.90;;;5.00;;
3712;SDS011;1872;51.406;6.856;2022-08-04T20:49:47;5.00;;;4.30;;
3712;SDS011;1872;51.406;6.856;2022-08-04T20:52:13;6.30;;;4.50;;